Time;durP1;ratioP1;P1;durP2;ratioP2;P2;SDS_P1;SDS_P2;PMS_P1;PMS_P2;Temp;Humidity;BMP_temperature;BMP_pressure;BME280_temperature;BME280_humidity;BME280_pressure;Samples;Min_cycle;Max_cycle;Signal;HPM_P1;HPM_P2
2022/08/23 00:00:45;;;;;;;7.32;2.67;;;22.70;56.90;;;;;;5029428;28;20037;-63
2022/08/23 00:03:11;;;;;;;7.80;2.70;;;22.70;56.90;;;;;;5005034;28;20041;-63
2022/08/23 00:05:37;;;;;;;7.63;2.97;;;22.70;57.00;;;;;;5017683;28;20030;-63
2022/08/23 00:08:03;;;;;;;7.60;2.60;;;22.70;57.00;;;;;;5029619;28;20455;-63
2022/08/23 00:10:29;;;;;;;7.50;2.70;;;22.60;57.00;;;;;;5027046;28;20061;-64
2022/08/23 00:12:54;;;;;;;5.97;2.33;;;22.60;57.10;;;;;;5017696;28;20025;-63
2022/08/23 00:15:20;;;;;;;8.05;2.95;;;22.60;57.30;;;;;;5026482;28;20485;-63
2022/08/23 00:17:46;;;;;;;7.47;2.75;;;22.60;57.40;;;;;;5032720;28;20116;-63
2022/08/23 00:20:15;;;;;;;7.05;3.00;;;22.60;57.40;;;;;;5025197;28;20068;-63
2022/08/23 00:22:41;;;;;;;6.78;2.70;;;22.60;58.10;;;;;;5028829;28;20045;-64
2022/08/23 00:25:09;;;;;;;7.05;2.65;;;22.50;57.60;;;;;;5023098;28;20029;-63
2022/08/23 00:27:36;;;;;;;7.80;2.95;;;22.50;57.60;;;;;;5021098;28;20025;-63
2022/08/23 00:30:05;;;;;;;6.97;2.83;;;22.50;57.70;;;;;;5026218;28;20036;-63
2022/08/23 00:32:34;;;;;;;5.88;2.70;;;22.50;57.80;;;;;;5019366;28;20040;-63
2022/08/23 00:35:01;;;;;;;8.65;2.90;;;22.40;57.90;;;;;;5018192;28;20076;-63
2022/08/23 00:37:28;;;;;;;5.95;2.83;;;22.40;58.00;;;;;;5033831;28;20100;-63
2022/08/23 00:39:54;;;;;;;6.57;2.70;;;22.40;58.10;;;;;;5026813;28;20442;-63
2022/08/23 00:48:38;;;;;;;6.83;2.50;;;22.30;58.30;;;;;;5033699;28;20029;-63
2022/08/23 00:51:28;;;;;;;9.57;3.20;;;22.30;58.40;;;;;;5017029;28;20288;-63
2022/08/23 00:53:57;;;;;;;6.28;2.95;;;22.30;58.50;;;;;;5016785;28;20029;-63
2022/08/23 00:56:25;;;;;;;7.05;3.20;;;22.20;58.50;;;;;;5024165;28;20036;-63
2022/08/23 00:58:51;;;;;;;9.10;2.63;;;22.20;58.60;;;;;;5033538;28;20029;-63
2022/08/23 01:01:16;;;;;;;6.38;2.70;;;22.20;58.70;;;;;;5021902;28;20414;-63
2022/08/23 01:03:49;;;;;;;7.70;2.75;;;22.10;58.90;;;;;;5018281;28;20056;-64
2022/08/23 01:06:31;;;;;;;7.00;3.00;;;22.10;59.00;;;;;;5017467;28;20041;-63
2022/08/23 01:09:09;;;;;;;7.60;3.08;;;22.10;59.10;;;;;;5012855;28;20102;-63
2022/08/23 01:11:43;;;;;;;6.50;2.95;;;22.10;59.20;;;;;;5016033;28;20027;-63
2022/08/23 01:14:24;;;;;;;6.00;2.90;;;22.00;59.10;;;;;;5025425;28;20061;-63
2022/08/23 01:16:56;;;;;;;8.27;3.20;;;22.00;59.20;;;;;;5018940;28;20343;-63
2022/08/23 01:19:34;;;;;;;8.57;3.13;;;22.00;59.30;;;;;;5016553;28;20061;-63
2022/08/23 01:22:13;;;;;;;7.75;3.40;;;21.90;59.30;;;;;;5021639;28;20053;-63
2022/08/23 01:24:40;;;;;;;7.45;2.97;;;21.90;59.40;;;;;;5027049;28;20025;-63
2022/08/23 01:27:07;;;;;;;6.68;2.83;;;21.90;59.40;;;;;;5016214;28;20515;-63
2022/08/23 01:29:33;;;;;;;6.60;2.72;;;21.90;60.20;;;;;;5028547;28;20025;-63
2022/08/23 01:31:59;;;;;;;9.65;3.60;;;21.80;59.50;;;;;;5014125;28;20014;-64
2022/08/23 01:34:27;;;;;;;7.10;3.20;;;21.80;59.60;;;;;;5025770;28;20022;-63
2022/08/23 01:36:54;;;;;;;8.45;3.20;;;21.80;59.70;;;;;;5022297;28;20045;-63
2022/08/23 01:39:19;;;;;;;7.95;3.30;;;21.80;59.80;;;;;;5027923;28;20421;-63
2022/08/23 01:41:45;;;;;;;7.28;3.25;;;21.80;59.90;;;;;;5009293;28;20101;-63
2022/08/23 01:44:12;;;;;;;6.80;3.25;;;21.70;59.90;;;;;;5017697;28;20133;-63
2022/08/23 01:46:43;;;;;;;5.72;3.05;;;21.70;60.00;;;;;;5016466;28;20112;-63
2022/08/23 01:49:11;;;;;;;7.55;3.33;;;21.70;60.10;;;;;;5034506;28;20112;-63
2022/08/23 01:51:37;;;;;;;7.88;3.10;;;21.70;60.10;;;;;;5024440;28;20025;-63
2022/08/23 01:54:03;;;;;;;8.50;3.80;;;21.60;60.10;;;;;;5019352;28;20350;-64
2022/08/23 01:56:31;;;;;;;7.20;3.53;;;21.60;60.20;;;;;;5014565;28;20029;-63
2022/08/23 01:58:57;;;;;;;7.30;3.28;;;21.60;60.30;;;;;;5014729;28;20112;-63
2022/08/23 02:01:25;;;;;;;7.55;3.22;;;21.60;60.50;;;;;;5027118;28;20340;-63
2022/08/23 02:03:51;;;;;;;6.15;3.03;;;21.50;60.40;;;;;;5010037;28;20026;-63
2022/08/23 02:06:17;;;;;;;7.45;3.65;;;21.50;60.50;;;;;;5027067;28;20458;-63
2022/08/23 02:09:02;;;;;;;8.55;3.70;;;21.50;60.60;;;;;;5020601;28;20041;-63
2022/08/23 02:11:38;;;;;;;8.38;3.53;;;21.50;60.60;;;;;;5016595;28;20022;-63
2022/08/23 02:14:10;;;;;;;8.93;4.07;;;21.50;60.70;;;;;;5017351;28;20128;-63
2022/08/23 02:16:47;;;;;;;7.00;3.20;;;21.40;60.60;;;;;;5025762;28;20033;-63
2022/08/23 02:19:14;;;;;;;7.35;3.70;;;21.40;60.60;;;;;;5025378;28;20133;-63
2022/08/23 02:21:41;;;;;;;7.85;3.92;;;21.40;60.70;;;;;;5026435;28;20383;-63
2022/08/23 02:24:14;;;;;;;9.57;3.47;;;21.40;60.70;;;;;;5025800;28;20026;-63
2022/08/23 02:26:42;;;;;;;6.25;3.30;;;21.40;60.70;;;;;;5027489;28;20037;-63
2022/08/23 02:29:08;;;;;;;10.40;3.75;;;21.40;60.80;;;;;;5033599;28;20420;-63
2022/08/23 02:31:34;;;;;;;6.90;3.58;;;21.40;60.80;;;;;;5023092;28;20030;-63
2022/08/23 02:34:01;;;;;;;6.95;3.22;;;21.40;60.80;;;;;;5016787;28;20407;-63
2022/08/23 02:36:28;;;;;;;6.68;3.53;;;21.40;60.90;;;;;;5008861;28;20336;-63
2022/08/23 02:38:55;;;;;;;8.00;3.53;;;21.40;61.00;;;;;;5033326;28;20091;-63
2022/08/23 02:41:21;;;;;;;8.05;3.65;;;21.30;61.00;;;;;;5024000;28;20041;-63
2022/08/23 02:43:51;;;;;;;7.95;4.07;;;21.40;61.10;;;;;;5021038;28;20026;-63
2022/08/23 02:46:18;;;;;;;7.17;3.67;;;21.30;61.10;;;;;;5031707;28;20458;-63
2022/08/23 02:48:45;;;;;;;9.25;3.33;;;21.30;61.10;;;;;;5016408;28;20299;-63
2022/08/23 02:51:10;;;;;;;7.07;4.13;;;21.30;61.10;;;;;;5007647;28;20382;-63
2022/08/23 02:53:37;;;;;;;7.97;3.70;;;21.40;61.20;;;;;;5016504;28;20053;-63
2022/08/23 02:56:06;;;;;;;7.78;3.38;;;21.30;61.30;;;;;;5018011;28;20456;-63
2022/08/23 02:58:31;;;;;;;7.85;3.53;;;21.30;61.40;;;;;;5008078;28;20109;-63
2022/08/23 03:00:58;;;;;;;8.05;3.70;;;21.30;61.50;;;;;;5025393;28;20026;-63
2022/08/23 03:03:24;;;;;;;8.77;4.25;;;21.20;61.50;;;;;;5020032;28;20018;-63
2022/08/23 03:05:50;;;;;;;7.10;3.60;;;21.20;61.60;;;;;;5015314;28;20021;-63
2022/08/23 03:08:18;;;;;;;8.32;3.90;;;21.20;61.80;;;;;;5019988;28;20056;-63
2022/08/23 03:10:49;;;;;;;6.95;3.65;;;21.20;61.90;;;;;;5009672;28;20175;-63
2022/08/23 03:13:15;;;;;;;8.65;4.18;;;21.10;61.90;;;;;;5022312;28;20124;-63
2022/08/23 03:15:42;;;;;;;7.93;3.97;;;21.10;61.90;;;;;;5015107;28;20034;-63
2022/08/23 03:18:09;;;;;;;9.10;3.90;;;21.10;62.10;;;;;;5015907;28;20478;-63
2022/08/23 03:20:35;;;;;;;7.72;3.83;;;21.10;62.10;;;;;;5032383;28;20156;-63
2022/08/23 03:23:01;;;;;;;8.15;4.13;;;21.10;62.10;;;;;;5011604;28;20030;-63
2022/08/23 03:25:27;;;;;;;8.30;4.25;;;21.10;62.20;;;;;;5033663;28;20024;-63
2022/08/23 03:28:06;;;;;;;7.65;4.00;;;21.10;62.20;;;;;;5017267;28;20108;-63
2022/08/23 03:30:34;;;;;;;7.88;4.05;;;21.00;62.30;;;;;;5007828;28;20069;-63
2022/08/23 03:33:00;;;;;;;8.70;3.70;;;21.00;62.30;;;;;;5008834;28;20049;-63
2022/08/23 03:35:27;;;;;;;9.13;4.30;;;20.90;62.30;;;;;;5010812;28;20332;-63
2022/08/23 03:37:53;;;;;;;7.15;4.13;;;21.00;62.50;;;;;;5013531;28;20470;-63
2022/08/23 03:40:19;;;;;;;7.82;4.05;;;20.90;62.60;;;;;;5013248;28;20022;-63
2022/08/23 03:42:45;;;;;;;6.82;3.90;;;20.90;62.70;;;;;;5011364;28;20108;-64
2022/08/23 03:45:13;;;;;;;8.85;3.90;;;20.90;62.70;;;;;;4996003;28;20056;-63
2022/08/23 03:47:38;;;;;;;8.30;4.40;;;20.90;62.80;;;;;;5011656;28;20041;-63
2022/08/23 03:50:05;;;;;;;8.23;4.20;;;20.90;62.90;;;;;;5011260;28;20017;-63
2022/08/23 03:52:31;;;;;;;9.40;4.20;;;20.90;63.40;;;;;;5010662;28;20032;-63
2022/08/23 03:54:57;;;;;;;8.05;4.20;;;20.90;63.10;;;;;;5011394;28;20101;-63
2022/08/23 03:57:24;;;;;;;9.35;4.22;;;20.80;63.10;;;;;;4992554;28;20015;-63
2022/08/23 03:59:50;;;;;;;6.65;3.72;;;20.80;63.10;;;;;;5007767;28;20375;-63
2022/08/23 04:02:16;;;;;;;7.95;4.47;;;20.80;63.10;;;;;;5010669;28;20021;-63
2022/08/23 04:04:41;;;;;;;7.97;4.18;;;20.80;63.20;;;;;;5005514;28;20390;-63
2022/08/23 04:07:26;;;;;;;9.35;4.13;;;20.80;63.30;;;;;;5011907;28;20033;-63
2022/08/23 04:09:54;;;;;;;7.30;3.88;;;20.70;63.40;;;;;;4983282;28;20025;-63
2022/08/23 04:12:22;;;;;;;7.55;4.18;;;20.70;63.50;;;;;;5009522;28;20038;-63
2022/08/23 04:14:48;;;;;;;8.32;4.30;;;20.70;63.60;;;;;;5011378;28;20049;-63
2022/08/23 04:17:15;;;;;;;9.55;4.90;;;20.70;63.70;;;;;;5010357;28;20025;-63
2022/08/23 04:19:41;;;;;;;8.63;4.40;;;20.70;63.80;;;;;;5011660;28;20456;-63
2022/08/23 04:22:13;;;;;;;8.00;4.03;;;20.70;63.90;;;;;;5010503;28;20474;-63
2022/08/23 04:24:41;;;;;;;8.05;4.28;;;20.70;63.90;;;;;;4999514;28;20407;-63
2022/08/23 04:27:07;;;;;;;8.93;4.57;;;20.70;64.00;;;;;;5011436;28;20117;-63
2022/08/23 04:29:33;;;;;;;8.48;5.13;;;20.60;64.00;;;;;;5011405;28;20121;-63
2022/08/23 04:32:01;;;;;;;10.18;4.97;;;20.60;64.10;;;;;;5008784;28;20053;-63
2022/08/23 04:34:27;;;;;;;8.35;4.65;;;20.60;64.20;;;;;;5012145;28;20026;-63
2022/08/23 04:36:53;;;;;;;9.68;4.65;;;20.60;64.30;;;;;;5008306;28;20049;-63
2022/08/23 04:39:19;;;;;;;9.05;4.10;;;20.60;64.20;;;;;;5009837;28;20435;-63
2022/08/23 04:44:30;;;;;;;10.90;5.00;;;20.60;64.30;;;;;;5009304;28;20022;-63
2022/08/23 04:46:59;;;;;;;8.85;4.32;;;20.60;64.40;;;;;;5005303;28;20029;-63
2022/08/23 04:49:27;;;;;;;9.25;4.35;;;20.60;64.40;;;;;;5012296;28;20160;-63
2022/08/23 04:51:52;;;;;;;10.43;5.00;;;20.60;64.50;;;;;;5016603;28;20391;-63
2022/08/23 04:54:18;;;;;;;9.18;4.55;;;20.60;64.60;;;;;;5022440;28;20080;-63
2022/08/23 04:57:10;;;;;;;9.60;4.60;;;20.60;64.60;;;;;;5011690;28;20040;-63
2022/08/23 04:59:37;;;;;;;7.45;4.20;;;20.70;65.40;;;;;;5014916;28;20084;-62
2022/08/23 05:02:04;;;;;;;7.43;4.65;;;20.70;64.80;;;;;;5027086;28;20025;-62
2022/08/23 05:04:29;;;;;;;7.70;4.78;;;20.70;64.80;;;;;;5003670;28;20018;-64
2022/08/23 05:06:56;;;;;;;8.05;4.63;;;20.70;64.80;;;;;;5034724;28;20029;-64
2022/08/23 05:09:23;;;;;;;7.25;4.65;;;20.70;64.90;;;;;;5009819;28;20340;-64
2022/08/23 05:11:49;;;;;;;8.23;4.53;;;20.70;64.90;;;;;;5034791;28;20552;-64
2022/08/23 05:14:16;;;;;;;8.82;5.03;;;20.80;65.00;;;;;;5036248;28;20042;-63
2022/08/23 05:16:42;;;;;;;8.88;4.85;;;20.80;64.90;;;;;;5036442;28;20022;-64
2022/08/23 05:19:09;;;;;;;9.02;4.88;;;20.80;65.00;;;;;;5030437;28;20423;-63
2022/08/23 05:21:41;;;;;;;7.68;4.97;;;20.80;65.00;;;;;;5015123;28;20097;-63
2022/08/23 05:24:07;;;;;;;8.90;5.47;;;20.80;64.90;;;;;;5031166;28;20049;-64
2022/08/23 05:26:33;;;;;;;9.75;5.72;;;20.90;65.00;;;;;;5023047;28;20030;-64
2022/08/23 05:28:59;;;;;;;8.68;5.35;;;20.90;65.20;;;;;;5019795;28;20033;-64
2022/08/23 05:31:31;;;;;;;8.77;5.80;;;20.90;65.20;;;;;;5027010;28;20093;-64
2022/08/23 05:34:00;;;;;;;10.73;6.63;;;20.90;65.30;;;;;;5026782;28;20026;-64
2022/08/23 05:36:32;;;;;;;11.40;6.20;;;21.00;65.40;;;;;;5017049;28;20116;-64
2022/08/23 05:38:59;;;;;;;11.10;7.05;;;21.00;65.40;;;;;;5020700;28;20058;-64
2022/08/23 05:41:24;;;;;;;11.57;7.15;;;21.10;65.50;;;;;;5034230;28;20045;-64
2022/08/23 05:43:50;;;;;;;12.60;7.00;;;21.10;65.40;;;;;;5025655;28;20048;-63
2022/08/23 05:46:21;;;;;;;12.82;6.90;;;21.20;65.60;;;;;;5023886;28;20026;-63
2022/08/23 05:48:56;;;;;;;12.27;7.13;;;21.20;65.60;;;;;;5012206;28;20100;-63
2022/08/23 05:51:29;;;;;;;8.95;6.03;;;21.30;65.60;;;;;;5014942;28;20018;-63
2022/08/23 05:53:58;;;;;;;11.48;6.47;;;21.40;65.40;;;;;;5015142;28;20092;-63
2022/08/23 05:56:28;;;;;;;9.30;6.22;;;21.40;65.30;;;;;;5014672;28;20030;-63
2022/08/23 05:58:57;;;;;;;9.30;6.57;;;21.40;65.30;;;;;;5012688;28;20030;-64
2022/08/23 06:01:23;;;;;;;9.43;6.60;;;21.50;65.10;;;;;;5011619;28;20272;-64
2022/08/23 06:03:52;;;;;;;11.30;7.47;;;21.60;65.20;;;;;;5022212;28;20029;-63
2022/08/23 06:06:19;;;;;;;10.48;7.45;;;21.60;64.90;;;;;;5020731;28;20285;-64
2022/08/23 06:08:47;;;;;;;12.05;7.65;;;21.80;64.60;;;;;;5015313;28;20022;-64
2022/08/23 06:11:19;;;;;;;12.02;7.50;;;21.90;64.30;;;;;;5026716;28;20399;-64
2022/08/23 06:13:48;;;;;;;11.43;7.47;;;22.20;63.60;;;;;;5020821;28;20038;-64
2022/08/23 06:16:16;;;;;;;13.43;7.07;;;23.00;62.30;;;;;;5032253;28;20021;-64
2022/08/23 06:18:43;;;;;;;12.68;7.68;;;23.80;60.30;;;;;;5024438;28;20064;-64
2022/08/23 06:21:39;;;;;;;12.50;7.43;;;24.70;58.50;;;;;;5020730;28;20113;-64
2022/08/23 06:24:05;;;;;;;12.35;7.18;;;25.40;57.10;;;;;;5011692;28;20033;-64
2022/08/23 06:26:34;;;;;;;11.35;7.65;;;25.70;56.10;;;;;;5014258;28;20086;-64
2022/08/23 06:29:04;;;;;;;10.30;6.40;;;25.70;55.90;;;;;;5019201;28;20105;-64
2022/08/23 06:31:46;;;;;;;9.60;6.78;;;25.70;56.00;;;;;;5019513;28;20113;-64
2022/08/23 06:34:36;;;;;;;11.18;7.00;;;25.60;56.00;;;;;;5015218;28;20572;-64
2022/08/23 06:37:23;;;;;;;10.48;7.22;;;25.50;55.90;;;;;;5009847;28;20026;-63
2022/08/23 06:40:02;;;;;;;12.25;7.20;;;25.50;56.00;;;;;;5007943;28;20040;-63
2022/08/23 06:42:43;;;;;;;10.43;6.63;;;25.50;55.80;;;;;;5025266;28;20031;-64
2022/08/23 06:45:09;;;;;;;11.40;6.78;;;25.50;55.80;;;;;;5016595;28;20026;-63
2022/08/23 06:47:39;;;;;;;11.85;7.47;;;25.40;55.60;;;;;;5031555;28;20094;-63
2022/08/23 06:50:06;;;;;;;9.25;6.07;;;25.50;55.50;;;;;;5022104;28;20391;-64
2022/08/23 06:53:06;;;;;;;;;;;25.50;55.20;;;;;;5031124;28;20052;-64
2022/08/23 06:55:40;;;;;;;9.95;5.50;;;25.70;55.00;;;;;;4990553;28;19971;-64
2022/08/23 06:58:35;;;;;;;10.15;6.00;;;25.80;54.60;;;;;;5025077;28;20048;-63
2022/08/23 07:01:33;;;;;;;13.05;6.38;;;25.90;54.30;;;;;;5010248;28;20225;-63
2022/08/23 07:04:06;;;;;;;14.23;5.45;;;26.00;54.10;;;;;;5012680;28;20370;-63
2022/08/23 07:06:55;;;;;;;;;;;26.10;53.70;;;;;;5033846;28;20470;-63
2022/08/23 07:09:21;;;;;;;10.23;5.97;;;26.20;53.60;;;;;;5022283;28;19931;-63
2022/08/23 07:11:47;;;;;;;8.77;5.70;;;26.20;53.50;;;;;;5033717;28;20108;-63
2022/08/23 07:14:15;;;;;;;12.68;6.63;;;26.40;53.30;;;;;;5033244;28;20132;-63
2022/08/23 07:17:01;;;;;;;11.73;5.78;;;26.40;53.10;;;;;;5010844;28;20498;-63
2022/08/23 07:19:31;;;;;;;10.57;6.13;;;26.50;53.00;;;;;;4996009;28;20046;-63
2022/08/23 07:21:59;;;;;;;12.88;6.38;;;26.50;52.70;;;;;;4998495;28;20036;-64
2022/08/23 07:24:25;;;;;;;9.48;6.18;;;26.60;52.80;;;;;;5008070;28;20420;-64
2022/08/23 07:26:52;;;;;;;11.65;6.18;;;26.60;52.60;;;;;;5008524;28;20363;-63
2022/08/23 07:29:20;;;;;;;13.00;6.25;;;26.80;52.50;;;;;;5030649;28;20033;-63
2022/08/23 07:31:50;;;;;;;12.80;6.82;;;26.90;52.30;;;;;;5020787;28;20036;-63
2022/08/23 07:34:16;;;;;;;11.00;5.97;;;27.10;52.10;;;;;;5022090;28;20041;-64
2022/08/23 07:36:44;;;;;;;14.50;6.20;;;27.20;51.90;;;;;;5032653;28;20029;-64
2022/08/23 07:39:11;;;;;;;11.05;6.10;;;27.30;51.80;;;;;;5019197;28;20026;-64
2022/08/23 07:41:38;;;;;;;11.60;6.55;;;27.30;51.70;;;;;;5014445;28;20037;-65
2022/08/23 07:44:08;;;;;;;11.45;6.57;;;27.30;51.60;;;;;;5030686;28;20029;-65
2022/08/23 07:46:35;;;;;;;11.63;6.40;;;27.40;51.60;;;;;;5030939;28;20025;-65
2022/08/23 07:49:03;;;;;;;12.55;6.05;;;27.50;51.60;;;;;;5003809;28;20065;-65
2022/08/23 07:51:38;;;;;;;12.43;7.38;;;27.50;51.40;;;;;;5010556;28;20112;-65
2022/08/23 07:54:09;;;;;;;11.82;6.72;;;27.60;51.20;;;;;;5013010;28;20022;-65
2022/08/23 07:56:44;;;;;;;12.00;6.63;;;27.70;51.00;;;;;;5031661;28;20103;-65
2022/08/23 07:59:30;;;;;;;11.93;6.53;;;27.80;50.70;;;;;;5025823;28;20022;-65
2022/08/23 08:02:26;;;;;;;10.13;5.82;;;27.90;50.40;;;;;;5019498;28;20030;-65
2022/08/23 08:04:52;;;;;;;11.80;6.22;;;27.90;50.40;;;;;;5015090;28;20358;-65
2022/08/23 08:07:19;;;;;;;12.43;6.47;;;28.00;50.40;;;;;;5027078;28;20034;-65
2022/08/23 08:09:46;;;;;;;11.70;6.10;;;28.10;50.20;;;;;;5024487;28;20025;-65
2022/08/23 08:12:13;;;;;;;11.88;6.20;;;28.20;49.90;;;;;;5017091;28;20075;-65
2022/08/23 08:14:41;;;;;;;10.27;6.38;;;28.30;49.70;;;;;;5012073;28;20042;-65
2022/08/23 08:17:08;;;;;;;13.00;6.75;;;28.40;49.30;;;;;;5036207;28;20068;-65
2022/08/23 08:19:52;;;;;;;8.60;4.78;;;28.50;49.00;;;;;;5015611;28;20131;-65
2022/08/23 08:22:44;;;;;;;10.75;5.93;;;28.60;49.00;;;;;;5010682;28;20072;-65
2022/08/23 08:25:36;;;;;;;12.38;6.70;;;28.80;48.90;;;;;;5012201;28;20049;-66
2022/08/23 08:28:05;;;;;;;10.48;5.22;;;28.90;48.40;;;;;;5010757;28;20113;-65
2022/08/23 08:30:31;;;;;;;12.90;5.28;;;28.90;48.30;;;;;;5016169;28;20030;-65
2022/08/23 08:32:57;;;;;;;11.60;5.65;;;29.00;48.10;;;;;;5016524;28;20490;-65
2022/08/23 08:35:24;;;;;;;12.68;5.68;;;29.10;47.80;;;;;;5015431;28;20030;-65
2022/08/23 08:37:50;;;;;;;9.52;4.60;;;29.10;47.70;;;;;;5012641;28;20336;-65
2022/08/23 08:40:26;;;;;;;9.57;4.68;;;29.20;47.60;;;;;;5012857;28;20462;-65
2022/08/23 08:43:16;;;;;;;9.27;5.53;;;29.30;47.20;;;;;;5024559;28;20026;-65
2022/08/23 08:46:03;;;;;;;9.10;5.40;;;29.30;46.70;;;;;;5037045;28;20080;-65
2022/08/23 08:48:38;;;;;;;11.77;4.93;;;29.40;46.80;;;;;;5026970;28;20095;-65
2022/08/23 08:51:15;;;;;;;8.43;4.78;;;29.50;46.80;;;;;;5020756;28;20034;-65
2022/08/23 08:53:47;;;;;;;9.25;4.03;;;29.60;46.70;;;;;;5036090;28;20040;-65
2022/08/23 08:56:37;;;;;;;10.57;4.22;;;29.70;46.50;;;;;;5036594;28;20033;-65
2022/08/23 08:59:20;;;;;;;;;;;29.70;46.40;;;;;;5037216;28;20017;-65
2022/08/23 09:01:46;;;;;;;7.30;3.75;;;29.70;46.50;;;;;;5036373;28;19936;-66
2022/08/23 09:04:16;;;;;;;10.07;4.32;;;29.80;46.40;;;;;;5031612;28;20029;-65
2022/08/23 09:07:04;;;;;;;11.00;5.00;;;29.80;46.30;;;;;;5037952;28;20033;-65
2022/08/23 09:09:45;;;;;;;9.68;4.15;;;29.90;45.90;;;;;;5022621;28;20030;-65
2022/08/23 09:12:33;;;;;;;9.65;4.53;;;30.00;45.60;;;;;;5036146;28;20374;-66
2022/08/23 09:15:14;;;;;;;9.52;3.78;;;30.10;45.40;;;;;;5036925;28;20466;-66
2022/08/23 09:18:15;;;;;;;8.32;3.90;;;30.20;45.40;;;;;;5036278;28;20116;-66
2022/08/23 09:20:51;;;;;;;10.20;4.07;;;30.30;45.10;;;;;;4973459;28;20096;-65
2022/08/23 09:23:25;;;;;;;11.77;4.25;;;30.40;45.20;;;;;;4994798;28;20455;-66
2022/08/23 09:25:55;;;;;;;9.27;4.63;;;30.40;44.90;;;;;;4978091;28;20061;-66
2022/08/23 09:28:31;;;;;;;9.68;4.25;;;30.50;44.50;;;;;;4968952;28;20038;-66
2022/08/23 09:30:58;;;;;;;10.27;4.32;;;30.50;44.00;;;;;;4972154;28;20034;-65
2022/08/23 09:33:42;;;;;;;9.52;4.15;;;30.50;43.60;;;;;;4952671;28;20034;-65
2022/08/23 09:36:25;;;;;;;19.15;4.30;;;30.60;43.00;;;;;;4995474;28;20046;-65
2022/08/23 09:39:03;;;;;;;8.40;3.88;;;30.60;42.90;;;;;;4995054;28;20031;-65
2022/08/23 09:41:40;;;;;;;10.35;3.88;;;30.70;42.90;;;;;;4979526;28;20471;-66
2022/08/23 09:44:12;;;;;;;8.02;3.95;;;30.80;42.70;;;;;;4968684;28;20026;-66
2022/08/23 09:46:40;;;;;;;8.77;3.70;;;30.90;42.40;;;;;;4995699;28;20478;-66
2022/08/23 09:49:21;;;;;;;9.80;4.32;;;31.00;42.40;;;;;;4979452;28;20030;-66
2022/08/23 09:51:49;;;;;;;9.48;3.97;;;31.20;42.30;;;;;;4979071;28;20483;-65
2022/08/23 09:54:32;;;;;;;7.82;3.30;;;31.20;42.10;;;;;;5009702;28;20067;-66
2022/08/23 09:57:01;;;;;;;10.40;3.33;;;31.30;41.70;;;;;;5023664;28;20025;-66
2022/08/23 09:59:38;;;;;;;9.05;3.08;;;31.40;41.40;;;;;;5034906;28;20334;-66
2022/08/23 10:02:29;;;;;;;8.35;2.63;;;31.30;41.10;;;;;;5035729;28;20124;-66
2022/08/23 10:05:00;;;;;;;6.78;2.22;;;31.20;41.10;;;;;;5035282;28;20033;-65
2022/08/23 10:07:40;;;;;;;7.82;2.70;;;31.20;40.80;;;;;;5035094;28;20022;-66
2022/08/23 10:10:33;;;;;;;6.88;2.65;;;31.10;40.40;;;;;;5025459;28;20022;-66
2022/08/23 10:13:04;;;;;;;7.95;3.00;;;31.30;40.20;;;;;;5034602;28;20013;-66
2022/08/23 10:15:50;;;;;;;6.03;2.47;;;31.40;40.50;;;;;;5034774;28;20049;-66
2022/08/23 10:18:23;;;;;;;7.32;3.15;;;31.70;40.00;;;;;;5027609;28;20331;-66
2022/08/23 10:21:19;;;;;;;6.20;2.83;;;31.90;39.80;;;;;;5027384;28;20032;-66
2022/08/23 10:23:54;;;;;;;7.45;2.83;;;32.10;39.50;;;;;;5031658;28;21883;-66
2022/08/23 10:26:26;;;;;;;9.23;3.05;;;32.20;39.80;;;;;;5019020;28;20112;-66
2022/08/23 10:32:08;;;;;;;5.82;2.60;;;32.40;39.50;;;;;;5008581;28;20086;-66
2022/08/23 10:35:09;;;;;;;5.85;2.28;;;32.40;39.60;;;;;;5021440;28;20030;-66
2022/08/23 10:37:58;;;;;;;6.63;2.97;;;32.40;39.50;;;;;;5028106;28;20026;-67
2022/08/23 10:40:32;;;;;;;5.13;2.63;;;32.30;39.50;;;;;;5009646;28;20022;-66
2022/08/23 10:43:13;;;;;;;8.45;2.92;;;32.20;39.40;;;;;;5007083;28;20021;-67
2022/08/23 10:45:42;;;;;;;6.07;2.50;;;32.10;39.40;;;;;;5021264;28;20117;-67
2022/08/23 10:48:35;;;;;;;7.50;2.90;;;32.00;39.30;;;;;;5011986;28;20026;-66
2022/08/23 10:51:18;;;;;;;6.53;2.63;;;31.90;39.20;;;;;;5014014;28;20022;-67
2022/08/23 10:54:34;;;;;;;11.48;3.30;;;32.10;39.40;;;;;;5012860;28;20034;-67
2022/08/23 10:57:02;;;;;;;8.68;2.80;;;32.20;39.10;;;;;;5003776;28;20386;-67
2022/08/23 10:59:31;;;;;;;8.40;3.38;;;32.40;39.30;;;;;;5007756;28;20058;-67
2022/08/23 11:02:11;;;;;;;8.95;3.22;;;32.50;39.00;;;;;;5013646;28;20351;-67
2022/08/23 11:04:50;;;;;;;5.90;2.90;;;32.40;38.70;;;;;;5012777;28;20397;-67
2022/08/23 11:07:40;;;;;;;6.50;2.88;;;32.40;38.50;;;;;;5008958;28;20023;-67
2022/08/23 11:10:33;;;;;;;8.82;3.00;;;32.30;38.40;;;;;;5010570;28;20030;-67
2022/08/23 11:13:13;;;;;;;6.60;2.63;;;32.20;38.70;;;;;;5084818;27;1214040;-67
2022/08/23 11:15:45;;;;;;;6.78;2.50;;;32.20;38.70;;;;;;5104751;28;20073;-67
2022/08/23 11:18:44;;;;;;;7.03;2.65;;;32.20;39.10;;;;;;5111409;28;20027;-67
2022/08/23 11:21:27;;;;;;;6.05;2.50;;;32.20;38.60;;;;;;5119743;28;20028;-67
2022/08/23 11:23:58;;;;;;;8.15;2.50;;;32.20;38.60;;;;;;5108670;28;20121;-67
2022/08/23 11:26:32;;;;;;;5.80;2.20;;;32.30;38.50;;;;;;5096734;28;20016;-67
2022/08/23 11:29:05;;;;;;;7.90;2.20;;;32.40;38.30;;;;;;5093919;28;20466;-67
2022/08/23 11:31:46;;;;;;;5.22;2.05;;;32.50;37.70;;;;;;5100852;28;20026;-67
2022/08/23 11:34:28;;;;;;;6.22;2.40;;;32.60;37.70;;;;;;5091027;28;20452;-67
2022/08/23 11:37:19;;;;;;;6.15;2.35;;;32.60;37.50;;;;;;5103448;28;20478;-67
2022/08/23 11:39:57;;;;;;;5.22;2.38;;;32.50;37.40;;;;;;5124595;28;20019;-67
2022/08/23 11:42:28;;;;;;;5.90;2.17;;;32.50;37.60;;;;;;5104372;28;20777;-67
2022/08/23 11:44:55;;;;;;;9.27;2.33;;;32.50;37.80;;;;;;5126543;28;20035;-67
2022/08/23 11:47:37;;;;;;;6.00;2.50;;;32.60;37.70;;;;;;5100291;28;20486;-67
2022/08/23 11:50:28;;;;;;;7.22;2.95;;;32.60;37.60;;;;;;5101080;28;20029;-67
2022/08/23 11:53:14;;;;;;;6.32;2.42;;;32.40;37.60;;;;;;5119683;28;20038;-67
2022/08/23 11:55:51;;;;;;;6.90;2.85;;;32.20;37.80;;;;;;5118054;28;20019;-67
2022/08/23 11:58:50;;;;;;;7.03;2.30;;;32.00;37.90;;;;;;5126320;28;20103;-67
2022/08/23 12:01:25;;;;;;;6.25;2.50;;;31.90;38.30;;;;;;5037584;28;20041;-67
2022/08/23 12:03:55;;;;;;;5.63;2.30;;;31.80;38.40;;;;;;5033616;28;20458;-67
2022/08/23 12:06:21;;;;;;;8.55;2.22;;;31.80;38.40;;;;;;5039486;28;20029;-67
2022/08/23 12:08:49;;;;;;;8.82;2.90;;;31.80;38.50;;;;;;5027383;28;20446;-67
2022/08/23 12:11:17;;;;;;;6.88;2.53;;;31.80;38.50;;;;;;5028727;28;20045;-68
2022/08/23 12:13:48;;;;;;;6.57;2.33;;;31.70;38.60;;;;;;5037210;28;20438;-67
2022/08/23 12:16:17;;;;;;;7.25;3.17;;;31.60;38.80;;;;;;5036279;28;20033;-66
2022/08/23 12:18:48;;;;;;;9.38;2.67;;;31.50;39.00;;;;;;5010623;28;20029;-66
2022/08/23 12:21:25;;;;;;;6.22;2.78;;;31.60;39.10;;;;;;5028723;28;20123;-66
2022/08/23 12:23:54;;;;;;;7.18;2.83;;;31.50;39.10;;;;;;5005240;28;20062;-66
2022/08/23 12:26:44;;;;;;;8.55;2.95;;;31.40;39.50;;;;;;4998868;28;20022;-66
2022/08/23 12:29:37;;;;;;;6.07;2.30;;;31.20;39.50;;;;;;4991740;28;20058;-66
2022/08/23 12:32:21;;;;;;;6.60;3.08;;;31.00;39.70;;;;;;5001085;28;20109;-66
2022/08/23 12:34:58;;;;;;;7.18;2.45;;;30.90;39.80;;;;;;5000580;28;20115;-66
2022/08/23 12:37:43;;;;;;;7.70;3.25;;;31.00;40.00;;;;;;5061261;28;20360;-66
2022/08/23 12:40:15;;;;;;;7.53;2.78;;;31.10;39.90;;;;;;5052851;28;20024;-66
2022/08/23 12:42:42;;;;;;;5.57;2.60;;;31.00;39.90;;;;;;5083123;28;20028;-66
2022/08/23 12:45:12;;;;;;;8.23;2.80;;;31.00;39.90;;;;;;5083440;28;20434;-66
2022/08/23 12:47:41;;;;;;;;;;;30.90;39.90;;;;;;5069803;28;20059;-66
2022/08/23 12:50:13;;;;;;;5.60;2.28;;;30.80;40.20;;;;;;5081205;28;19950;-66
2022/08/23 12:52:40;;;;;;;5.10;2.30;;;30.70;39.90;;;;;;5072141;28;20032;-66
2022/08/23 12:55:17;;;;;;;5.35;2.17;;;30.70;39.90;;;;;;5067056;28;20082;-66
2022/08/23 12:57:53;;;;;;;5.75;2.10;;;30.60;39.80;;;;;;5086638;28;20020;-66
2022/08/23 13:00:42;;;;;;;6.22;2.38;;;30.70;39.80;;;;;;5064188;28;20042;-66
2022/08/23 13:03:18;;;;;;;5.07;2.25;;;30.60;39.80;;;;;;5077028;28;20032;-66
2022/08/23 13:05:48;;;;;;;6.55;2.20;;;30.50;40.00;;;;;;5069405;28;20032;-66
2022/08/23 13:08:25;;;;;;;6.13;2.17;;;30.50;40.40;;;;;;5097483;28;20020;-66
2022/08/23 13:10:51;;;;;;;8.10;2.53;;;30.40;40.50;;;;;;5095054;28;20393;-66
2022/08/23 13:13:22;;;;;;;6.07;2.20;;;30.40;40.70;;;;;;5093693;28;20105;-66
2022/08/23 13:16:18;;;;;;;5.38;2.20;;;30.30;40.70;;;;;;5092941;28;20031;-66
2022/08/23 13:18:47;;;;;;;6.55;2.38;;;30.20;40.90;;;;;;5083147;28;20064;-70
2022/08/23 13:21:21;;;;;;;5.63;2.30;;;30.10;41.10;;;;;;5092685;28;20043;-66
2022/08/23 13:23:52;;;;;;;5.40;2.05;;;30.00;41.30;;;;;;5071812;28;21132;-65
2022/08/23 13:26:36;;;;;;;7.22;2.40;;;29.90;41.50;;;;;;5096110;28;20036;-64